地図

経路データ

SID SEASON NUMBER BASIN SUBBASIN NAME ISO_TIME NATURE LAT LON WMO_WIND WMO_PRES WMO_AGENCY TRACK_TYPE DIST2LAND LANDFALL IFLAG USA_AGENCY USA_ATCF_ID USA_LAT USA_LON USA_RECORD USA_STATUS USA_WIND USA_PRES USA_SSHS USA_R34_NE USA_R34_SE USA_R34_SW USA_R34_NW USA_R50_NE USA_R50_SE USA_R50_SW USA_R50_NW USA_R64_NE USA_R64_SE USA_R64_SW USA_R64_NW USA_POCI USA_ROCI USA_RMW USA_EYE TOKYO_LAT TOKYO_LON TOKYO_GRADE TOKYO_WIND TOKYO_PRES TOKYO_R50_DIR TOKYO_R50_LONG TOKYO_R50_SHORT TOKYO_R30_DIR TOKYO_R30_LONG TOKYO_R30_SHORT TOKYO_LAND CMA_LAT CMA_LON CMA_CAT CMA_WIND CMA_PRES HKO_LAT HKO_LON HKO_CAT HKO_WIND HKO_PRES NEWDELHI_LAT NEWDELHI_LON NEWDELHI_GRADE NEWDELHI_WIND NEWDELHI_PRES NEWDELHI_CI NEWDELHI_DP NEWDELHI_POCI REUNION_LAT REUNION_LON REUNION_TYPE REUNION_WIND REUNION_PRES REUNION_TNUM REUNION_CI REUNION_RMW REUNION_R34_NE REUNION_R34_SE REUNION_R34_SW REUNION_R34_NW REUNION_R50_NE REUNION_R50_SE REUNION_R50_SW REUNION_R50_NW REUNION_R64_NE REUNION_R64_SE REUNION_R64_SW REUNION_R64_NW BOM_LAT BOM_LON BOM_TYPE BOM_WIND BOM_PRES BOM_TNUM BOM_CI BOM_RMW BOM_R34_NE BOM_R34_SE BOM_R34_SW BOM_R34_NW BOM_R50_NE BOM_R50_SE BOM_R50_SW BOM_R50_NW BOM_R64_NE BOM_R64_SE BOM_R64_SW BOM_R64_NW BOM_ROCI BOM_POCI BOM_EYE BOM_POS_METHOD BOM_PRES_METHOD NADI_LAT NADI_LON NADI_CAT NADI_WIND NADI_PRES WELLINGTON_LAT WELLINGTON_LON WELLINGTON_WIND WELLINGTON_PRES DS824_LAT DS824_LON DS824_STAGE DS824_WIND DS824_PRES TD9636_LAT TD9636_LON TD9636_STAGE TD9636_WIND TD9636_PRES TD9635_LAT TD9635_LON TD9635_WIND TD9635_PRES TD9635_ROCI NEUMANN_LAT NEUMANN_LON NEUMANN_CLASS NEUMANN_WIND NEUMANN_PRES MLC_LAT MLC_LON MLC_CLASS MLC_WIND MLC_PRES USA_GUST BOM_GUST BOM_GUST_PER REUNION_GUST REUNION_GUST_PER USA_SEAHGT USA_SEARAD_NE USA_SEARAD_SE USA_SEARAD_SW USA_SEARAD_NW STORM_SPEED STORM_DIR
1935194N15126 1935 35 WP MM NOT_NAMED 1935-07-13 10:00:00 NR 14.9000 125.600 main 171 155 __________O___ -1 14.9000 125.600 2 8 283
1935194N15126 1935 35 WP MM NOT_NAMED 1935-07-13 12:00:00 NR 14.9583 125.329 main 155 134 __________P___ -1 14.9583 125.329 2 8 284
1935194N15126 1935 35 WP MM NOT_NAMED 1935-07-13 15:00:00 NR 15.0674 124.899 main 139 127 __________P___ -1 15.0674 124.899 2 9 287
1935194N15126 1935 35 WP MM NOT_NAMED 1935-07-13 18:00:00 NR 15.2330 124.410 main 134 134 __________P___ -1 15.2330 124.410 2 11 292
1935194N15126 1935 35 WP MM NOT_NAMED 1935-07-13 21:00:00 NR 15.4889 123.823 main 170 164 __________P___ -1 15.4889 123.823 2 13 295
1935194N15126 1935 35 WP MM NOT_NAMED 1935-07-13 22:00:00 NR 15.6000 123.600 main 164 101 __________O___ -1 15.6000 123.600 2 16 298
1935194N15126 1935 35 WP MM NOT_NAMED 1935-07-14 00:00:00 NR 15.8626 123.107 main 101 10 __________P___ -1 15.8626 123.107 2 18 299
1935194N15126 1935 35 WP MM NOT_NAMED 1935-07-14 03:00:00 NR 16.3142 122.265 main 10 0 __________P___ -1 16.3142 122.265 2 19 298
1935194N15126 1935 35 WP MM NOT_NAMED 1935-07-14 06:00:00 NR 16.7598 121.330 main 0 0 __________P___ -1 16.7598 121.330 2 20 293
1935194N15126 1935 35 WP MM NOT_NAMED 1935-07-14 09:00:00 NR 17.1157 120.338 main 15 15 __________P___ -1 17.1157 120.338 2 20 289
1935194N15126 1935 35 WP MM NOT_NAMED 1935-07-14 10:00:00 NR 17.2000 120.000 main 42 42 __________O___ -1 17.2000 120.000 2 19 278
1935194N15126 1935 35 WP MM NOT_NAMED 1935-07-14 12:00:00 NR 17.2455 119.337 main 113 113 __________P___ -1 17.2455 119.337 2 19 270
1935194N15126 1935 35 WP MM NOT_NAMED 1935-07-14 15:00:00 NR 17.2000 118.312 main 188 188 __________P___ -1 17.2000 118.312 2 20 266
1935194N15126 1935 35 WP MM NOT_NAMED 1935-07-14 18:00:00 NR 17.0928 117.273 main 280 291 __________P___ -1 17.0928 117.273 2 20 264
1935194N15126 1935 35 WP MM NOT_NAMED 1935-07-14 21:00:00 NR 17.0084 116.240 main 389 389 __________P___ -1 17.0084 116.240 2 20 266
1935194N15126 1935 35 WP MM NOT_NAMED 1935-07-14 22:00:00 NR 17.0000 115.900 main 420 420 __________O___ -1 17.0000 115.900 2 19 272
1935194N15126 1935 35 WP MM NOT_NAMED 1935-07-15 00:00:00 NR 17.0352 115.238 main 492 444 __________P___ -1 17.0352 115.238 2 19 275
1935194N15126 1935 35 WP MM NOT_NAMED 1935-07-15 03:00:00 NR 17.1450 114.258 main 444 340 __________P___ -1 17.1450 114.258 2 19 279
1935194N15126 1935 35 WP MM NOT_NAMED 1935-07-15 06:00:00 NR 17.3289 113.287 main 340 232 __________P___ -1 17.3289 113.287 2 19 284
1935194N15126 1935 35 WP MM NOT_NAMED 1935-07-15 09:00:00 NR 17.5931 112.322 main 232 209 __________P___ -1 17.5931 112.322 2 19 287
1935194N15126 1935 35 WP MM NOT_NAMED 1935-07-15 10:00:00 NR 17.7000 112.000 main 200 138 __________O___ -1 17.7000 112.000 2 20 291
1935194N15126 1935 35 WP MM NOT_NAMED 1935-07-15 12:00:00 NR 17.9421 111.355 main 138 30 __________P___ -1 17.9421 111.355 2 20 293
1935194N15126 1935 35 WP MM NOT_NAMED 1935-07-15 15:00:00 NR 18.3639 110.385 main 30 0 __________P___ -1 18.3639 110.385 2 21 296
1935194N15126 1935 35 WP MM NOT_NAMED 1935-07-15 18:00:00 NR 18.8353 109.410 main 0 0 __________P___ -1 18.8353 109.410 2 21 298
1935194N15126 1935 35 WP MM NOT_NAMED 1935-07-15 21:00:00 NR 19.3326 108.428 main 20 23 __________P___ -1 19.3326 108.428 2 21 298
1935194N15126 1935 35 WP MM NOT_NAMED 1935-07-15 22:00:00 NR 19.5000 108.100 main 57 __________O___ -1 19.5000 108.100 2 21 298

デジタル台風データ・検索

IBTrACS Databaseについて

本データベースは、米国NOAAが公開する1842年以降の世界の熱帯低気圧のベストトラックデータアーカイブInternational Best Track Archive for Climate Stewardship (IBTrACS)を、ウェブで閲覧しやすい形式に変換したものです。

最終更新日:2021-12-01